Espaço - Ciências - Fenômenos Naturais
Meteógrafos Informações Meteorológicas em tempo real

Aeroporto de Congonhas

Histórico do Tempo
Temperatura atual: 20 graus 68 F    Umidade relativa: 46 %
Velocidade do vento: 04 nós 7 Km/h    Direção: 010 graus N
Ajuste do altímetro ..: 1019 HPA
Visibilidade: Péssima    Tempo presente: Céu Limpo

Observação

Data Hora BRTTempo°CUmidadePressãoVentoVisib.
17/08 - 22:56   Céu Limpo 21° 40% 1020 Norte-nordeste/5 km/h OK
17/08 - 21:56   Céu Limpo 21° 37% 1020 Norte-nordeste/5 km/h OK
17/08 - 20:56   Céu Limpo 23° 33% 1019 Norte/12 km/h OK
17/08 - 19:56   Céu Limpo 23° 35% 1019 Norte-noroeste/10 km/h OK
17/08 - 18:56   Céu Limpo 24° 33% 1018 Norte/12 km/h OK
17/08 - 17:56   Céu Limpo 25° 31% 1018 Norte-noroeste/14 km/h CAVO
17/08 - 16:56   Céu Limpo 26° 29% 1018 Norte-noroeste/19 km/h CAVO
17/08 - 15:56   Céu Limpo 26° 32% 1019 Norte-noroeste/23 km/h CAVO
17/08 - 14:56   Céu Limpo 26° 32% 1019 Norte-noroeste/19 km/h CAVO
17/08 - 13:56   Céu Limpo 26° 32% 1019 Norte-noroeste/19 km/h CAVO
17/08 - 12:56   Céu Limpo 25° 34% 1020 Norte-noroeste/18 km/h CAVO
17/08 - 11:56   Céu Limpo 24° 38% 1022 Norte/14 km/h CAVO
17/08 - 10:56   Céu Limpo 21° 46% 1023 Norte-nordeste/16 km/h CAVO
17/08 - 09:56   Céu Limpo 19° 52% 1024 Nordeste/9 km/h CAVO
17/08 - 08:56   Céu Limpo 17° 59% 1024 Nordeste/7 km/h CAVO
17/08 - 07:56   Céu Limpo 15° 67% 1024 Este-nordeste/7 km/h CAVO
17/08 - 06:56   Céu Limpo 13° 71% 1023 /3 km/h OK
17/08 - 05:56   Céu Limpo 14° 67% 1023 Nordeste/5 km/h CAVO
17/08 - 04:56   Céu Limpo 15° 63% 1022 Nordeste/7 km/h OK
17/08 - 03:56   Céu Limpo 15° 63% 1022 Este-nordeste/7 km/h OK
17/08 - 02:56   Céu Limpo 16° 59% 1023 Este-nordeste/9 km/h OK
17/08 - 01:56   Céu Limpo 17° 55% 1024 Este-nordeste/9 km/h CAVO
17/08 - 00:56   Céu Limpo 17° 59% 1024 Este-nordeste/5 km/h CAVO
16/08 - 23:56   Céu Limpo 17° 59% 1025 Leste/5 km/h OK


Apolo11.com - Todos os direitos reservados - 2000 - 2019
Política de Privacidade   |     Termo de Uso e Licenciamento   |  -   Entre em Contato

"Até os mais estúpidos entendem o que um rico quer dizer, mas nem os mais doutos entendem o que um pobre está dizendo" - Provérbio Chinês